Time;durP1;ratioP1;P1;durP2;ratioP2;P2;SDS_P1;SDS_P2;PMS_P1;PMS_P2;Temp;Humidity;BMP_temperature;BMP_pressure;BME280_temperature;BME280_humidity;BME280_pressure;Samples;Min_cycle;Max_cycle;Signal;HPM_P1;HPM_P2
2023/03/20 00:00:43;;;;;;;75.43;27.00;;;7.40;99.80;;;;;;5029609;28;20111;-71
2023/03/20 00:03:12;;;;;;;68.70;26.20;;;7.40;99.90;;;;;;5046236;28;20060;-71
2023/03/20 00:05:38;;;;;;;82.43;27.10;;;7.40;99.90;;;;;;5025941;28;20148;-70
2023/03/20 00:08:04;;;;;;;74.18;26.52;;;7.40;99.90;;;;;;5046205;28;20131;-72
2023/03/20 00:10:50;;;;;;;84.70;28.58;;;7.50;99.90;;;;;;5044955;28;20461;-71
2023/03/20 00:13:24;;;;;;;79.22;28.13;;;7.50;99.90;;;;;;5046053;28;20389;-71
2023/03/20 00:15:50;;;;;;;80.85;27.77;;;7.40;99.90;;;;;;5044264;28;20067;-72
2023/03/20 00:18:19;;;;;;;80.97;28.92;;;7.50;99.90;;;;;;5047199;28;20473;-72
2023/03/20 00:20:49;;;;;;;89.78;29.52;;;7.50;99.90;;;;;;5045067;28;20060;-72
2023/03/20 00:23:16;;;;;;;85.97;28.58;;;7.50;99.90;;;;;;5048169;28;20032;-72
2023/03/20 00:25:43;;;;;;;79.45;29.75;;;7.50;99.90;;;;;;5051682;28;20056;-72
2023/03/20 00:28:41;;;;;;;81.30;29.10;;;7.60;99.90;;;;;;5052896;28;20037;-72
2023/03/20 00:31:26;;;;;;;81.78;29.55;;;7.60;99.90;;;;;;5050317;28;20041;-72
2023/03/20 00:33:57;;;;;;;81.05;27.73;;;7.60;99.90;;;;;;5048805;28;20033;-71
2023/03/20 00:36:23;;;;;;;88.00;29.20;;;7.60;99.90;;;;;;5047951;28;20455;-71
2023/03/20 00:38:50;;;;;;;92.47;30.30;;;7.60;99.90;;;;;;5041491;28;20040;-71
2023/03/20 00:41:32;;;;;;;78.82;29.95;;;7.60;99.90;;;;;;5032541;28;20053;-71
2023/03/20 00:44:02;;;;;;;88.18;29.88;;;7.60;99.90;;;;;;5051622;28;20488;-71
2023/03/20 00:46:30;;;;;;;83.38;30.17;;;7.60;99.90;;;;;;5028690;28;20029;-71
2023/03/20 00:48:56;;;;;;;83.28;29.92;;;7.60;99.90;;;;;;5048451;28;20036;-71
2023/03/20 00:51:22;;;;;;;89.15;31.13;;;7.70;99.90;;;;;;5051124;28;20037;-70
2023/03/20 00:53:47;;;;;;;85.57;30.95;;;7.70;99.90;;;;;;5034464;28;20425;-71
2023/03/20 00:56:39;;;;;;;96.85;31.48;;;7.70;99.90;;;;;;5047802;28;20036;-71
2023/03/20 00:59:06;;;;;;;87.60;30.17;;;7.70;99.90;;;;;;5042865;28;20064;-71
2023/03/20 01:01:31;;;;;;;94.93;31.70;;;7.70;99.90;;;;;;5050797;28;20029;-71
2023/03/20 01:03:58;;;;;;;89.13;30.20;;;7.70;99.90;;;;;;5048628;28;20035;-71
2023/03/20 01:06:24;;;;;;;88.78;31.40;;;7.70;99.90;;;;;;5041996;28;20063;-71
2023/03/20 01:08:49;;;;;;;93.07;31.83;;;7.80;99.90;;;;;;5049714;28;20051;-72
2023/03/20 01:11:22;;;;;;;91.35;30.75;;;7.70;99.90;;;;;;5047991;28;20029;-71
2023/03/20 01:13:47;;;;;;;79.00;28.95;;;7.70;99.90;;;;;;5049355;28;20065;-72
2023/03/20 01:16:20;;;;;;;90.13;31.00;;;7.80;99.90;;;;;;5049725;28;20441;-71
2023/03/20 01:18:46;;;;;;;85.78;30.13;;;7.80;99.90;;;;;;5042275;28;20198;-72
2023/03/20 01:21:12;;;;;;;96.65;32.53;;;7.70;99.90;;;;;;5046019;28;20134;-71
2023/03/20 01:23:38;;;;;;;87.32;30.60;;;7.80;99.90;;;;;;5047771;28;20027;-71
2023/03/20 01:26:05;;;;;;;83.13;29.88;;;7.70;99.90;;;;;;5043823;28;20038;-72
2023/03/20 01:28:31;;;;;;;87.10;31.25;;;7.80;99.90;;;;;;5044551;28;20606;-72
2023/03/20 01:30:56;;;;;;;93.57;31.10;;;7.70;99.90;;;;;;5046177;28;20115;-72
2023/03/20 01:33:25;;;;;;;90.50;30.05;;;7.70;99.90;;;;;;5048925;28;20159;-71
2023/03/20 01:35:51;;;;;;;86.35;29.70;;;7.80;99.90;;;;;;5047338;28;20032;-72
2023/03/20 01:38:22;;;;;;;85.20;30.05;;;7.80;99.90;;;;;;5049469;28;20029;-72
2023/03/20 01:40:54;;;;;;;87.32;30.60;;;7.80;99.90;;;;;;5049490;28;20538;-72
2023/03/20 01:43:21;;;;;;;88.18;29.90;;;7.80;99.90;;;;;;5049784;28;20113;-71
2023/03/20 01:46:01;;;;;;;90.13;30.90;;;7.80;99.90;;;;;;5042284;28;20060;-71
2023/03/20 01:48:50;;;;;;;91.47;32.05;;;7.80;99.90;;;;;;5047579;28;20474;-71
2023/03/20 01:51:17;;;;;;;87.00;30.45;;;7.80;99.90;;;;;;5043513;28;20033;-71
2023/03/20 01:53:46;;;;;;;84.05;30.45;;;7.90;99.90;;;;;;5046754;28;20393;-71
2023/03/20 01:56:14;;;;;;;79.63;30.48;;;7.90;99.90;;;;;;5047572;28;20056;-71
2023/03/20 01:58:44;;;;;;;91.45;32.40;;;7.90;99.90;;;;;;5045302;28;20126;-71
2023/03/20 02:01:12;;;;;;;84.20;31.83;;;7.90;99.90;;;;;;5049019;28;20036;-71
2023/03/20 02:03:41;;;;;;;78.47;30.00;;;7.90;99.90;;;;;;5047283;28;20025;-70
2023/03/20 02:06:07;;;;;;;93.30;30.48;;;8.00;99.90;;;;;;5042396;28;20467;-72
2023/03/20 02:08:39;;;;;;;85.35;29.92;;;8.00;99.90;;;;;;5048422;28;20389;-71
2023/03/20 02:11:05;;;;;;;79.57;29.98;;;8.00;99.90;;;;;;5045965;28;20041;-72
2023/03/20 02:13:32;;;;;;;88.85;31.65;;;8.00;99.90;;;;;;5050909;28;20037;-72
2023/03/20 02:16:02;;;;;;;84.90;31.13;;;8.00;99.90;;;;;;5046741;28;20021;-71
2023/03/20 02:18:29;;;;;;;82.05;32.30;;;8.00;99.90;;;;;;5044329;28;20420;-71
2023/03/20 02:20:57;;;;;;;91.35;30.92;;;8.00;99.90;;;;;;5047108;28;20100;-71
2023/03/20 02:24:03;;;;;;;82.63;31.48;;;8.00;99.90;;;;;;5031479;28;20035;-71
2023/03/20 02:26:56;;;;;;;90.68;30.60;;;8.00;99.90;;;;;;5051130;28;20232;-72
2023/03/20 02:29:52;;;;;;;91.63;30.30;;;8.10;99.90;;;;;;5051494;28;20127;-71
2023/03/20 02:32:37;;;;;;;81.68;30.15;;;8.10;99.90;;;;;;5047913;28;20423;-71
2023/03/20 02:35:26;;;;;;;78.47;29.13;;;8.10;99.90;;;;;;5047377;28;20594;-71
2023/03/20 02:37:56;;;;;;;90.43;31.60;;;8.10;99.90;;;;;;5045980;28;20449;-71
2023/03/20 02:41:00;;;;;;;82.28;31.80;;;8.10;99.90;;;;;;5047740;28;20037;-71
2023/03/20 02:43:45;;;;;;;77.93;29.33;;;8.10;99.90;;;;;;5046575;28;20037;-71
2023/03/20 02:46:35;;;;;;;85.20;28.48;;;8.10;99.90;;;;;;5050165;28;20503;-71
2023/03/20 02:49:29;;;;;;;76.07;28.60;;;8.10;99.90;;;;;;5049339;28;20037;-71
2023/03/20 02:52:24;;;;;;;83.75;29.40;;;8.10;99.90;;;;;;5018843;28;20493;-71
2023/03/20 02:54:53;;;;;;;73.95;28.42;;;8.10;99.90;;;;;;5046948;28;20017;-71
2023/03/20 02:57:30;;;;;;;80.30;30.13;;;8.10;99.90;;;;;;5026405;28;20033;-71
2023/03/20 03:00:04;;;;;;;81.07;30.00;;;8.10;99.90;;;;;;5044377;28;20048;-71
2023/03/20 03:02:38;;;;;;;94.93;31.38;;;8.10;99.90;;;;;;5043901;28;20440;-71
2023/03/20 03:05:10;;;;;;;80.68;29.90;;;8.10;99.90;;;;;;5026105;28;20082;-71
2023/03/20 03:07:38;;;;;;;85.85;31.27;;;8.10;99.90;;;;;;5044570;28;20043;-71
2023/03/20 03:10:14;;;;;;;88.90;30.83;;;8.10;99.90;;;;;;5041411;28;20056;-71
2023/03/20 03:12:44;;;;;;;86.57;29.88;;;8.10;99.90;;;;;;5047587;28;20025;-72
2023/03/20 03:15:15;;;;;;;74.22;27.23;;;8.10;99.90;;;;;;5045146;28;20109;-70
2023/03/20 03:17:43;;;;;;;70.57;27.35;;;8.10;99.90;;;;;;5046614;28;20481;-71
2023/03/20 03:20:42;;;;;;;67.70;25.45;;;8.10;99.90;;;;;;5045057;28;20037;-72
2023/03/20 03:23:25;;;;;;;64.90;24.75;;;8.00;99.90;;;;;;5041434;28;20128;-71
2023/03/20 03:25:54;;;;;;;65.43;24.08;;;8.00;99.90;;;;;;5045438;28;20033;-71
2023/03/20 03:28:43;;;;;;;58.15;23.77;;;8.00;99.90;;;;;;5049977;28;20223;-72
2023/03/20 03:31:16;;;;;;;55.22;22.55;;;8.00;99.90;;;;;;5045614;28;20418;-72
2023/03/20 03:33:45;;;;;;;44.80;18.85;;;8.00;99.90;;;;;;5048900;28;20570;-71
2023/03/20 03:36:13;;;;;;;44.85;18.05;;;7.90;99.90;;;;;;5041845;28;20033;-71
2023/03/20 03:38:48;;;;;;;48.75;17.92;;;7.90;99.90;;;;;;5039160;28;20041;-71
2023/03/20 03:41:25;;;;;;;37.83;15.70;;;7.90;99.90;;;;;;5045153;28;20448;-71
2023/03/20 03:44:10;;;;;;;31.48;13.50;;;7.80;99.70;;;;;;5049583;28;20415;-72
2023/03/20 03:46:49;;;;;;;23.70;10.88;;;7.70;99.30;;;;;;5045520;28;20111;-72
2023/03/20 03:49:20;;;;;;;25.77;11.48;;;7.70;99.10;;;;;;5043738;28;20502;-72
2023/03/20 03:51:49;;;;;;;25.90;10.88;;;7.70;99.00;;;;;;5044786;28;20056;-71
2023/03/20 03:54:19;;;;;;;20.77;9.57;;;7.60;98.80;;;;;;5046164;28;20159;-72
2023/03/20 03:56:47;;;;;;;21.83;10.30;;;7.60;98.80;;;;;;5043579;28;20119;-71
2023/03/20 03:59:25;;;;;;;25.02;10.40;;;7.60;98.80;;;;;;5047964;28;20029;-71
2023/03/20 04:01:53;;;;;;;22.67;10.30;;;7.60;98.80;;;;;;5044244;28;20112;-72
2023/03/20 04:04:20;;;;;;;19.83;10.15;;;7.60;98.90;;;;;;5046467;28;20041;-71
2023/03/20 04:06:46;;;;;;;20.60;9.70;;;7.60;98.90;;;;;;5045632;28;20033;-71
2023/03/20 04:09:11;;;;;;;18.92;8.63;;;7.50;98.80;;;;;;5041089;28;20443;-71
2023/03/20 04:11:37;;;;;;;19.50;9.23;;;7.50;98.50;;;;;;5046217;28;20032;-71
2023/03/20 04:14:03;;;;;;;16.77;8.75;;;7.50;98.50;;;;;;5048272;28;20114;-71
2023/03/20 04:16:28;;;;;;;19.33;8.07;;;7.50;98.50;;;;;;5044575;28;20029;-72
2023/03/20 04:18:55;;;;;;;15.85;7.93;;;7.40;98.30;;;;;;5044277;28;20389;-71
2023/03/20 04:21:20;;;;;;;13.98;7.53;;;7.50;98.20;;;;;;5046991;28;20504;-71
2023/03/20 04:23:46;;;;;;;16.88;8.00;;;7.50;98.00;;;;;;5046316;28;20116;-71
2023/03/20 04:26:12;;;;;;;15.63;7.60;;;7.40;97.90;;;;;;5047863;28;20095;-71
2023/03/20 04:28:37;;;;;;;14.20;7.50;;;7.40;97.70;;;;;;5049034;28;20025;-71
2023/03/20 04:31:03;;;;;;;17.20;7.32;;;7.40;97.70;;;;;;5040074;28;20064;-71
2023/03/20 04:33:29;;;;;;;16.85;8.05;;;7.40;97.60;;;;;;5045249;28;20360;-72
2023/03/20 04:35:55;;;;;;;15.27;7.30;;;7.40;97.60;;;;;;5028960;28;20094;-71
2023/03/20 04:38:22;;;;;;;14.70;7.00;;;7.40;97.40;;;;;;5044709;28;20450;-71
2023/03/20 04:40:47;;;;;;;13.68;6.57;;;7.40;97.40;;;;;;5043546;28;20078;-72
2023/03/20 04:43:14;;;;;;;12.32;6.90;;;7.40;97.20;;;;;;5048458;28;20417;-71
2023/03/20 04:45:40;;;;;;;13.43;6.47;;;7.40;97.20;;;;;;5029477;28;20035;-72
2023/03/20 04:48:06;;;;;;;12.07;6.57;;;7.40;97.20;;;;;;5047588;28;20459;-71
2023/03/20 04:50:31;;;;;;;10.82;5.90;;;7.40;97.20;;;;;;5042301;28;20045;-71
2023/03/20 04:52:57;;;;;;;10.77;6.13;;;7.30;97.20;;;;;;5043622;28;20454;-72
2023/03/20 04:55:22;;;;;;;10.48;5.65;;;7.40;97.00;;;;;;5044617;28;20048;-72
2023/03/20 04:57:49;;;;;;;10.13;5.35;;;7.40;96.60;;;;;;5046656;28;20485;-71
2023/03/20 05:00:15;;;;;;;12.30;5.38;;;7.40;96.60;;;;;;5044858;28;20143;-72
2023/03/20 05:02:42;;;;;;;9.82;5.00;;;7.40;96.50;;;;;;5045772;28;20029;-71
2023/03/20 05:05:09;;;;;;;9.85;4.93;;;7.40;96.10;;;;;;5046957;28;20432;-72
2023/03/20 05:07:34;;;;;;;10.30;4.90;;;7.40;96.20;;;;;;5049685;28;20031;-71
2023/03/20 05:10:00;;;;;;;7.97;4.30;;;7.40;96.30;;;;;;5050140;28;20111;-71
2023/03/20 05:12:26;;;;;;;10.38;4.93;;;7.40;96.20;;;;;;5050504;28;20067;-71
2023/03/20 05:14:53;;;;;;;7.60;4.40;;;7.40;96.10;;;;;;5048595;28;20036;-71
2023/03/20 05:17:19;;;;;;;9.10;4.57;;;7.40;96.10;;;;;;5049361;28;20029;-71
2023/03/20 05:19:45;;;;;;;10.15;4.50;;;7.40;95.70;;;;;;5044304;28;20120;-71
2023/03/20 05:22:11;;;;;;;8.40;4.55;;;7.50;95.50;;;;;;5044465;28;20120;-70
2023/03/20 05:24:36;;;;;;;9.25;4.70;;;7.50;95.50;;;;;;5050725;28;20037;-71
2023/03/20 05:27:02;;;;;;;9.70;5.07;;;7.50;95.60;;;;;;5048614;28;20032;-71
2023/03/20 05:29:27;;;;;;;9.82;5.20;;;7.50;95.50;;;;;;5025636;28;20037;-72
2023/03/20 05:31:54;;;;;;;21.27;5.55;;;7.50;95.50;;;;;;5045242;28;20401;-74
2023/03/20 05:34:20;;;;;;;9.18;5.43;;;7.50;95.70;;;;;;5044631;28;20386;-73
2023/03/20 05:36:45;;;;;;;10.38;5.60;;;7.50;95.60;;;;;;5029598;28;20021;-74
2023/03/20 05:39:10;;;;;;;9.73;5.32;;;7.50;95.60;;;;;;5049713;28;20037;-73
2023/03/20 05:41:36;;;;;;;9.50;5.10;;;7.50;95.50;;;;;;5042734;28;20049;-74
2023/03/20 05:44:01;;;;;;;11.40;6.55;;;7.50;95.40;;;;;;5046436;28;20419;-74
2023/03/20 05:46:27;;;;;;;10.75;5.90;;;7.60;95.50;;;;;;5046921;28;20028;-74
2023/03/20 05:48:53;;;;;;;10.38;6.18;;;7.60;95.60;;;;;;5044113;28;20048;-72
2023/03/20 05:51:19;;;;;;;9.38;5.63;;;7.60;95.50;;;;;;5047005;28;20386;-73
2023/03/20 05:53:45;;;;;;;10.35;5.40;;;7.50;95.50;;;;;;5047732;28;20036;-73
2023/03/20 05:56:10;;;;;;;10.38;5.45;;;7.50;95.50;;;;;;5045830;28;20033;-71
2023/03/20 05:58:36;;;;;;;9.82;5.85;;;7.60;95.40;;;;;;5048827;28;20584;-74
2023/03/20 06:01:01;;;;;;;10.52;5.72;;;7.50;95.60;;;;;;5049051;28;20048;-73
2023/03/20 06:03:27;;;;;;;10.82;6.32;;;7.50;95.70;;;;;;5048703;28;20033;-70
2023/03/20 06:05:52;;;;;;;10.10;5.53;;;7.50;95.70;;;;;;5043478;28;20140;-74
2023/03/20 06:08:18;;;;;;;11.15;6.13;;;7.50;95.70;;;;;;5048158;28;20515;-72
2023/03/20 06:10:43;;;;;;;13.02;6.50;;;7.50;95.90;;;;;;5049079;28;20041;-74
2023/03/20 06:13:09;;;;;;;11.18;6.22;;;7.50;95.90;;;;;;5044158;28;20540;-72
2023/03/20 06:15:34;;;;;;;10.90;6.10;;;7.50;96.00;;;;;;5049253;28;20044;-73
2023/03/20 06:18:00;;;;;;;13.23;6.30;;;7.50;95.80;;;;;;5044619;28;20382;-74
2023/03/20 06:20:25;;;;;;;11.32;6.53;;;7.50;95.90;;;;;;5043492;28;20025;-74
2023/03/20 06:22:51;;;;;;;13.23;7.00;;;7.50;95.90;;;;;;5048958;28;20037;-75
2023/03/20 06:25:17;;;;;;;11.98;6.15;;;7.50;96.00;;;;;;5046173;28;20033;-74
2023/03/20 06:27:44;;;;;;;11.40;6.30;;;7.50;95.90;;;;;;5050144;28;20036;-73
2023/03/20 06:30:10;;;;;;;11.93;7.10;;;7.50;95.80;;;;;;5048546;28;20090;-74
2023/03/20 06:32:36;;;;;;;9.98;5.97;;;7.50;95.80;;;;;;5052638;28;20112;-74
2023/03/20 06:35:01;;;;;;;11.80;6.55;;;7.50;95.60;;;;;;5048011;28;20695;-72
2023/03/20 06:37:27;;;;;;;12.20;6.85;;;7.60;95.60;;;;;;5044579;28;20436;-74
2023/03/20 06:39:52;;;;;;;11.98;6.75;;;7.60;95.50;;;;;;5048663;28;20027;-74
2023/03/20 06:42:18;;;;;;;13.02;6.38;;;7.60;95.30;;;;;;5048488;28;20059;-75
2023/03/20 06:44:43;;;;;;;11.25;6.32;;;7.60;95.40;;;;;;5051947;28;20025;-74
2023/03/20 06:47:09;;;;;;;11.27;6.55;;;7.60;95.50;;;;;;5042140;28;20044;-74
2023/03/20 06:49:35;;;;;;;13.25;6.82;;;7.70;95.50;;;;;;5049270;28;20037;-75
2023/03/20 06:52:01;;;;;;;11.05;6.78;;;7.70;95.50;;;;;;5042400;28;20114;-74
2023/03/20 06:54:27;;;;;;;11.77;7.07;;;7.70;95.20;;;;;;5049446;28;20059;-71
2023/03/20 06:56:52;;;;;;;13.02;7.40;;;7.70;95.30;;;;;;5046500;28;20049;-74
2023/03/20 06:59:18;;;;;;;14.70;7.88;;;7.70;95.30;;;;;;5047937;28;20044;-74
2023/03/20 07:01:43;;;;;;;12.43;7.25;;;7.80;95.20;;;;;;5038810;28;20029;-74
2023/03/20 07:04:09;;;;;;;12.00;7.57;;;7.80;95.10;;;;;;5043756;28;20478;-76
2023/03/20 07:06:34;;;;;;;14.65;7.40;;;7.80;95.20;;;;;;5039886;28;20120;-74
2023/03/20 07:09:00;;;;;;;13.23;8.13;;;7.80;95.20;;;;;;5045953;28;20033;-75
2023/03/20 07:11:26;;;;;;;13.15;8.25;;;7.80;95.20;;;;;;5040835;28;20033;-72
2023/03/20 07:13:52;;;;;;;14.05;7.88;;;7.80;95.10;;;;;;5046917;28;20025;-76
2023/03/20 07:16:17;;;;;;;13.68;8.27;;;7.80;95.00;;;;;;5044688;28;20031;-78
2023/03/20 07:18:43;;;;;;;14.73;8.30;;;7.90;95.20;;;;;;5040255;28;20056;-75
2023/03/20 07:21:10;;;;;;;12.23;7.57;;;7.80;95.20;;;;;;5045101;28;20033;-75
2023/03/20 07:23:36;;;;;;;16.50;9.45;;;7.90;95.20;;;;;;5047815;28;20017;-77
2023/03/20 07:26:02;;;;;;;16.27;8.48;;;7.90;95.40;;;;;;5043854;28;20041;-75
2023/03/20 07:28:27;;;;;;;15.52;9.25;;;7.90;95.20;;;;;;5037130;28;20628;-77
2023/03/20 07:30:53;;;;;;;16.77;9.60;;;7.90;95.30;;;;;;5038234;28;20384;-75
2023/03/20 07:33:19;;;;;;;18.02;9.63;;;8.00;95.50;;;;;;5045642;28;20116;-74
2023/03/20 07:35:45;;;;;;;15.90;8.73;;;8.00;95.40;;;;;;5042890;28;20025;-74
2023/03/20 07:38:10;;;;;;;19.05;10.23;;;8.00;95.40;;;;;;5043305;28;20064;-75
2023/03/20 07:40:36;;;;;;;16.30;9.45;;;8.00;95.20;;;;;;5046220;28;20032;-75
2023/03/20 07:43:02;;;;;;;17.88;10.60;;;8.00;95.30;;;;;;5046556;28;20052;-75
2023/03/20 07:45:27;;;;;;;15.82;10.48;;;8.00;95.40;;;;;;5036489;28;20029;-74
2023/03/20 07:47:53;;;;;;;18.48;10.45;;;8.00;95.40;;;;;;5025397;28;20108;-72
2023/03/20 07:50:18;;;;;;;17.70;10.25;;;8.00;95.50;;;;;;5045267;28;20119;-73
2023/03/20 07:52:48;;;;;;;21.80;11.60;;;8.00;95.50;;;;;;5047113;28;20025;-72
2023/03/20 07:55:14;;;;;;;18.63;9.88;;;8.00;95.50;;;;;;5046031;28;20388;-74
2023/03/20 07:57:40;;;;;;;17.55;9.93;;;8.00;95.50;;;;;;5041301;28;20120;-75
2023/03/20 08:00:07;;;;;;;18.00;10.48;;;8.00;95.50;;;;;;5048140;28;20429;-73
2023/03/20 08:02:33;;;;;;;18.15;10.43;;;8.00;95.50;;;;;;5046548;28;20114;-75
2023/03/20 08:04:59;;;;;;;16.55;10.70;;;8.00;95.50;;;;;;5042835;28;20124;-72
2023/03/20 08:07:24;;;;;;;15.65;10.38;;;8.00;95.40;;;;;;5041107;28;20477;-75
2023/03/20 08:09:51;;;;;;;17.85;10.30;;;8.00;95.40;;;;;;5049113;28;20485;-75
2023/03/20 08:12:16;;;;;;;14.70;8.90;;;8.00;95.10;;;;;;5046174;28;20025;-72
2023/03/20 08:14:43;;;;;;;16.20;9.43;;;8.00;94.60;;;;;;5037954;28;20033;-74
2023/03/20 08:17:08;;;;;;;15.20;9.63;;;8.10;94.40;;;;;;5039827;28;20053;-75
2023/03/20 08:19:35;;;;;;;16.60;9.73;;;8.10;94.00;;;;;;5045821;28;20123;-75
2023/03/20 08:22:01;;;;;;;18.17;9.85;;;8.10;94.20;;;;;;5046411;28;20437;-73
2023/03/20 08:24:26;;;;;;;15.93;9.85;;;8.10;94.10;;;;;;5044431;28;20029;-72
2023/03/20 08:26:52;;;;;;;17.75;10.25;;;8.20;94.30;;;;;;5048416;28;20466;-74
2023/03/20 08:29:18;;;;;;;17.63;10.63;;;8.20;94.20;;;;;;5049406;28;20033;-75
2023/03/20 08:31:44;;;;;;;17.05;9.25;;;8.30;94.30;;;;;;5045123;28;20466;-75
2023/03/20 08:34:10;;;;;;;16.70;10.32;;;8.30;94.20;;;;;;5042163;28;20028;-74
2023/03/20 08:36:35;;;;;;;18.08;10.30;;;8.30;94.10;;;;;;5044898;28;20033;-75
2023/03/20 08:39:01;;;;;;;14.88;9.32;;;8.30;93.90;;;;;;5045411;28;20044;-72
2023/03/20 08:41:26;;;;;;;17.50;10.35;;;8.30;93.90;;;;;;5052139;28;20053;-75
2023/03/20 08:43:52;;;;;;;17.95;10.40;;;8.30;93.50;;;;;;5052012;28;20531;-75
2023/03/20 08:46:17;;;;;;;16.33;9.35;;;8.20;93.60;;;;;;5047988;28;20082;-74
2023/03/20 08:48:43;;;;;;;16.90;9.73;;;8.20;93.30;;;;;;5049785;28;20037;-76
2023/03/20 08:51:08;;;;;;;14.45;9.52;;;8.20;93.10;;;;;;5048740;28;20090;-76
2023/03/20 08:53:34;;;;;;;18.05;9.52;;;8.20;92.80;;;;;;5044997;28;20021;-75
2023/03/20 08:56:00;;;;;;;16.10;9.07;;;8.20;92.70;;;;;;5054329;28;20385;-76
2023/03/20 08:58:26;;;;;;;14.90;9.30;;;8.30;92.80;;;;;;5049029;28;20037;-75
2023/03/20 09:00:51;;;;;;;16.48;9.45;;;8.30;93.00;;;;;;5054322;28;20518;-77
2023/03/20 09:03:19;;;;;;;13.95;8.68;;;8.30;93.00;;;;;;5046632;28;20029;-76
2023/03/20 09:05:50;;;;;;;14.27;9.13;;;8.30;92.50;;;;;;5041519;28;20032;-75
2023/03/20 09:08:15;;;;;;;18.83;10.07;;;8.30;92.50;;;;;;5047678;28;20430;-76
2023/03/20 09:10:41;;;;;;;18.05;9.05;;;8.40;92.50;;;;;;5033902;28;20135;-75
2023/03/20 09:13:06;;;;;;;13.25;7.45;;;8.30;91.90;;;;;;5052275;28;20111;-76
2023/03/20 09:15:33;;;;;;;13.77;7.95;;;8.30;91.10;;;;;;5049801;28;20036;-75
2023/03/20 09:17:59;;;;;;;15.40;7.97;;;8.30;91.40;;;;;;5047590;28;20033;-75
2023/03/20 09:20:25;;;;;;;15.30;8.32;;;8.30;90.80;;;;;;5051285;28;20025;-77
2023/03/20 09:22:50;;;;;;;15.85;7.65;;;8.30;91.00;;;;;;5029818;28;20025;-76
2023/03/20 09:25:16;;;;;;;12.13;7.63;;;8.30;90.60;;;;;;5051936;28;20048;-76
2023/03/20 09:27:41;;;;;;;16.08;7.60;;;8.30;90.20;;;;;;5046022;28;20116;-76
2023/03/20 09:30:08;;;;;;;14.57;7.28;;;8.30;89.60;;;;;;5052202;28;20075;-77
2023/03/20 09:32:34;;;;;;;11.05;6.28;;;8.30;89.10;;;;;;5030931;28;20446;-76
2023/03/20 09:35:00;;;;;;;13.65;6.53;;;8.40;88.10;;;;;;5049369;28;20044;-74
2023/03/20 09:37:26;;;;;;;16.98;6.68;;;8.40;87.80;;;;;;5046820;28;20522;-76
2023/03/20 09:39:53;;;;;;;12.25;6.50;;;8.50;87.70;;;;;;5040589;28;20110;-76
2023/03/20 09:42:57;;;;;;;14.45;6.65;;;8.60;88.20;;;;;;5046133;28;20053;-77
2023/03/20 09:45:32;;;;;;;12.10;6.00;;;8.80;88.00;;;;;;5049716;28;20424;-76
2023/03/20 09:48:08;;;;;;;14.27;6.78;;;8.80;86.40;;;;;;5049586;28;20044;-75
2023/03/20 09:51:02;;;;;;;11.20;6.65;;;8.80;86.40;;;;;;5048994;28;20049;-76
2023/03/20 09:53:39;;;;;;;10.90;5.97;;;8.80;87.00;;;;;;5019640;28;20040;-76
2023/03/20 09:56:13;;;;;;;11.07;6.22;;;8.70;86.30;;;;;;5050376;28;20037;-76
2023/03/20 09:58:40;;;;;;;12.45;6.82;;;8.70;86.60;;;;;;5052762;28;20056;-74
2023/03/20 10:01:11;;;;;;;11.18;6.30;;;8.70;86.50;;;;;;5050649;28;20067;-71
2023/03/20 10:03:42;;;;;;;11.10;6.03;;;8.80;86.20;;;;;;5049435;28;20022;-76
2023/03/20 10:06:13;;;;;;;15.07;7.20;;;9.00;86.70;;;;;;5041023;28;20033;-76
2023/03/20 10:08:39;;;;;;;10.80;5.47;;;9.10;86.70;;;;;;5051563;28;20132;-76
2023/03/20 10:11:22;;;;;;;13.93;5.80;;;9.10;85.80;;;;;;5051035;28;20123;-77
2023/03/20 10:14:23;;;;;;;12.27;6.32;;;9.10;85.00;;;;;;5045049;28;20052;-76
2023/03/20 10:17:23;;;;;;;13.27;6.05;;;9.10;85.40;;;;;;5048807;28;20366;-76
2023/03/20 10:19:55;;;;;;;11.13;5.95;;;9.10;85.10;;;;;;5039077;28;20029;-74
2023/03/20 10:22:27;;;;;;;11.77;5.93;;;9.10;85.20;;;;;;5045206;28;20472;-77
2023/03/20 10:25:15;;;;;;;11.88;6.20;;;9.10;85.30;;;;;;5043082;28;20029;-76
2023/03/20 10:27:50;;;;;;;12.63;6.55;;;9.00;84.70;;;;;;5047664;28;20373;-75
2023/03/20 10:30:25;;;;;;;10.77;6.00;;;9.10;85.00;;;;;;5047392;28;20112;-74
2023/03/20 10:33:25;;;;;;;10.93;6.00;;;9.20;84.60;;;;;;5045989;28;20055;-76
2023/03/20 10:35:54;;;;;;;8.85;5.63;;;9.20;84.00;;;;;;5040527;28;20394;-75
2023/03/20 10:38:33;;;;;;;12.48;5.72;;;9.50;84.50;;;;;;5050148;28;20106;-76
2023/03/20 10:40:58;;;;;;;12.90;5.80;;;9.50;83.10;;;;;;5034734;28;20120;-75
2023/03/20 10:43:33;;;;;;;9.52;5.15;;;9.50;83.10;;;;;;5051514;28;20647;-76
2023/03/20 10:46:12;;;;;;;10.85;6.10;;;9.70;83.40;;;;;;5050891;28;20033;-76
2023/03/20 10:49:03;;;;;;;10.80;5.55;;;9.70;83.00;;;;;;5049403;28;20089;-76
2023/03/20 10:51:44;;;;;;;;;;;9.80;83.40;;;;;;5043420;28;20032;-76
2023/03/20 10:54:23;;;;;;;15.80;5.38;;;9.80;82.50;;;;;;5050558;28;19905;-75
2023/03/20 10:56:54;;;;;;;17.75;6.03;;;9.80;82.50;;;;;;5044937;28;20083;-76
2023/03/20 10:59:40;;;;;;;11.00;5.13;;;9.60;82.00;;;;;;5049095;28;20461;-76
2023/03/20 11:02:14;;;;;;;9.15;4.60;;;9.60;81.90;;;;;;5045606;28;20067;-73
2023/03/20 11:04:39;;;;;;;9.85;4.88;;;9.40;81.20;;;;;;5044972;28;20392;-72
2023/03/20 11:07:24;;;;;;;7.97;4.40;;;9.40;81.80;;;;;;5048318;28;20033;-75
2023/03/20 11:10:04;;;;;;;11.70;4.75;;;9.40;81.50;;;;;;5048156;28;20033;-76
2023/03/20 11:12:36;;;;;;;12.13;5.32;;;9.40;81.90;;;;;;5044293;28;20059;-76
2023/03/20 11:15:32;;;;;;;9.80;5.38;;;9.50;82.00;;;;;;5050131;28;20044;-76
2023/03/20 11:18:04;;;;;;;11.23;4.85;;;9.40;81.20;;;;;;5047977;28;20025;-75
2023/03/20 11:20:42;;;;;;;10.00;5.13;;;9.40;81.10;;;;;;5046230;28;20052;-75
2023/03/20 11:23:15;;;;;;;10.85;5.13;;;9.30;81.50;;;;;;5044766;28;20369;-75
2023/03/20 11:25:56;;;;;;;10.73;5.03;;;9.40;81.50;;;;;;5048264;28;20025;-76
2023/03/20 11:28:35;;;;;;;9.63;5.25;;;9.60;81.60;;;;;;5044763;28;20045;-72
2023/03/20 11:31:19;;;;;;;8.25;4.55;;;9.80;81.00;;;;;;5049807;28;20029;-76
2023/03/20 11:34:08;;;;;;;11.73;5.00;;;9.90;80.20;;;;;;5048735;28;20063;-74
2023/03/20 11:36:36;;;;;;;10.32;5.18;;;10.10;80.10;;;;;;5045275;28;20037;-76
2023/03/20 11:39:13;;;;;;;10.60;5.28;;;10.20;79.20;;;;;;5042433;28;20079;-76
2023/03/20 11:41:46;;;;;;;11.45;5.75;;;10.30;78.10;;;;;;5048315;28;20060;-74
2023/03/20 11:44:33;;;;;;;11.30;6.07;;;10.10;78.00;;;;;;5048124;28;20473;-75
2023/03/20 11:47:11;;;;;;;8.57;4.82;;;10.10;78.20;;;;;;5050053;28;20021;-76
2023/03/20 11:49:49;;;;;;;11.75;5.57;;;10.20;78.80;;;;;;5049010;28;20040;-75
2023/03/20 11:52:20;;;;;;;9.80;5.57;;;10.30;79.10;;;;;;5043914;28;20029;-75
2023/03/20 11:54:49;;;;;;;9.10;4.85;;;10.20;78.80;;;;;;5049875;28;20582;-77
2023/03/20 11:57:37;;;;;;;10.35;5.93;;;10.20;78.20;;;;;;5049981;28;20420;-77
2023/03/20 12:00:25;;;;;;;10.43;5.95;;;10.20;79.00;;;;;;5045731;28;20435;-76
2023/03/20 12:02:50;;;;;;;12.45;5.80;;;10.10;80.10;;;;;;5050427;28;20033;-76
2023/03/20 12:05:35;;;;;;;13.00;5.70;;;10.10;79.50;;;;;;5039884;28;20374;-76
2023/03/20 12:08:21;;;;;;;8.48;5.82;;;10.20;79.40;;;;;;5049074;28;20527;-75
2023/03/20 12:10:58;;;;;;;11.32;6.13;;;10.30;78.60;;;;;;5045153;28;20049;-76
2023/03/20 12:13:34;;;;;;;9.18;5.25;;;10.10;78.60;;;;;;5028285;28;20116;-77
2023/03/20 12:16:12;;;;;;;12.85;4.78;;;10.10;78.20;;;;;;5045740;28;20067;-78
2023/03/20 12:19:16;;;;;;;8.63;4.95;;;10.10;77.50;;;;;;5043384;28;20037;-76
2023/03/20 12:22:00;;;;;;;9.05;5.00;;;10.10;77.60;;;;;;5029036;28;20045;-77
2023/03/20 12:24:40;;;;;;;10.27;5.20;;;10.30;77.40;;;;;;5042790;28;20375;-75
2023/03/20 12:27:24;;;;;;;10.75;5.10;;;10.40;76.50;;;;;;5044594;28;20367;-77
2023/03/20 12:30:09;;;;;;;10.60;4.97;;;10.40;75.70;;;;;;5025653;28;20040;-76
2023/03/20 12:32:43;;;;;;;9.70;5.22;;;10.40;76.00;;;;;;5024925;28;20068;-76
2023/03/20 12:35:30;;;;;;;10.10;4.78;;;10.30;76.10;;;;;;5041942;28;20116;-77
2023/03/20 12:37:57;;;;;;;9.52;4.53;;;10.20;76.40;;;;;;5042866;28;20056;-77
2023/03/20 12:40:32;;;;;;;9.40;4.60;;;10.20;77.10;;;;;;5045486;28;20029;-77
2023/03/20 12:43:07;;;;;;;9.60;4.97;;;10.10;76.10;;;;;;5047748;28;20512;-76
2023/03/20 12:45:48;;;;;;;10.45;5.32;;;10.10;76.00;;;;;;5036705;28;20370;-76
2023/03/20 12:48:36;;;;;;;9.35;4.53;;;10.10;76.60;;;;;;5045186;28;20176;-76
2023/03/20 12:51:27;;;;;;;9.60;4.70;;;10.00;76.40;;;;;;5039291;28;20461;-73
2023/03/20 12:53:56;;;;;;;8.73;4.75;;;10.20;76.50;;;;;;5035204;28;20046;-74
2023/03/20 12:56:49;;;;;;;8.05;4.75;;;10.50;75.90;;;;;;5042118;28;20037;-74
2023/03/20 12:59:35;;;;;;;7.32;4.47;;;10.60;75.20;;;;;;5045939;28;20397;-74
2023/03/20 13:02:32;;;;;;;11.10;4.47;;;10.60;74.30;;;;;;5045563;28;20083;-74
2023/03/20 13:05:18;;;;;;;10.02;4.85;;;10.50;74.30;;;;;;5036287;28;20556;-73